sensor_id;sensor_type;location;lat;lon;timestamp;pressure;altitude;pressure_sealevel;temperature;humidity
5872;BME280;2962;51.312;7.378;2023-04-19T00:00:27;98404.75;;;7.54;100.00
5872;BME280;2962;51.312;7.378;2023-04-19T00:02:52;98407.59;;;7.58;100.00
5872;BME280;2962;51.312;7.378;2023-04-19T00:05:18;98402.34;;;7.62;100.00
5872;BME280;2962;51.312;7.378;2023-04-19T00:07:44;98395.34;;;7.52;100.00
5872;BME280;2962;51.312;7.378;2023-04-19T00:10:11;98400.06;;;7.64;100.00
5872;BME280;2962;51.312;7.378;2023-04-19T00:12:36;98394.34;;;7.65;100.00
5872;BME280;2962;51.312;7.378;2023-04-19T00:15:01;98393.66;;;7.68;100.00
5872;BME280;2962;51.312;7.378;2023-04-19T00:17:27;98393.41;;;7.61;100.00
5872;BME280;2962;51.312;7.378;2023-04-19T00:19:53;98387.97;;;7.61;100.00
5872;BME280;2962;51.312;7.378;2023-04-19T00:22:18;98393.56;;;7.56;100.00
5872;BME280;2962;51.312;7.378;2023-04-19T00:24:43;98401.56;;;7.52;100.00
5872;BME280;2962;51.312;7.378;2023-04-19T00:27:08;98399.31;;;7.54;100.00
5872;BME280;2962;51.312;7.378;2023-04-19T00:29:34;98393.41;;;7.52;100.00
5872;BME280;2962;51.312;7.378;2023-04-19T00:31:59;98403.16;;;7.53;100.00
5872;BME280;2962;51.312;7.378;2023-04-19T00:34:24;98402.03;;;7.54;100.00
5872;BME280;2962;51.312;7.378;2023-04-19T00:36:50;98390.69;;;7.61;100.00
5872;BME280;2962;51.312;7.378;2023-04-19T00:39:15;98396.75;;;7.58;100.00
5872;BME280;2962;51.312;7.378;2023-04-19T00:41:40;98392.78;;;7.55;100.00
5872;BME280;2962;51.312;7.378;2023-04-19T00:44:06;98395.16;;;7.57;100.00
5872;BME280;2962;51.312;7.378;2023-04-19T00:46:31;98393.41;;;7.52;100.00
5872;BME280;2962;51.312;7.378;2023-04-19T00:48:57;98385.81;;;7.46;100.00
5872;BME280;2962;51.312;7.378;2023-04-19T00:51:22;98393.09;;;7.54;100.00
5872;BME280;2962;51.312;7.378;2023-04-19T00:53:48;98393.91;;;7.54;100.00
5872;BME280;2962;51.312;7.378;2023-04-19T00:56:13;98394.69;;;7.55;100.00
5872;BME280;2962;51.312;7.378;2023-04-19T00:58:39;98386.56;;;7.55;100.00
5872;BME280;2962;51.312;7.378;2023-04-19T01:01:05;98394.69;;;7.55;100.00
5872;BME280;2962;51.312;7.378;2023-04-19T01:03:30;98385.47;;;7.47;100.00
5872;BME280;2962;51.312;7.378;2023-04-19T01:05:56;98388.00;;;7.52;100.00
5872;BME280;2962;51.312;7.378;2023-04-19T01:08:22;98385.28;;;7.52;100.00
5872;BME280;2962;51.312;7.378;2023-04-19T01:10:47;98388.50;;;7.46;100.00
5872;BME280;2962;51.312;7.378;2023-04-19T01:13:12;98396.16;;;7.44;100.00
5872;BME280;2962;51.312;7.378;2023-04-19T01:15:38;98387.25;;;7.43;100.00
5872;BME280;2962;51.312;7.378;2023-04-19T01:18:03;98395.38;;;7.43;100.00
5872;BME280;2962;51.312;7.378;2023-04-19T01:20:28;98389.31;;;7.46;100.00
5872;BME280;2962;51.312;7.378;2023-04-19T01:22:54;98386.91;;;7.45;100.00
5872;BME280;2962;51.312;7.378;2023-04-19T01:25:19;98383.84;;;7.55;100.00
5872;BME280;2962;51.312;7.378;2023-04-19T01:27:44;98388.50;;;7.46;100.00
5872;BME280;2962;51.312;7.378;2023-04-19T01:30:10;98384.00;;;7.58;100.00
5872;BME280;2962;51.312;7.378;2023-04-19T01:32:35;98372.50;;;7.62;100.00
5872;BME280;2962;51.312;7.378;2023-04-19T01:35:01;98376.03;;;7.53;100.00
5872;BME280;2962;51.312;7.378;2023-04-19T01:37:26;98377.59;;;7.63;100.00
5872;BME280;2962;51.312;7.378;2023-04-19T01:39:51;98379.66;;;7.66;100.00
5872;BME280;2962;51.312;7.378;2023-04-19T01:42:17;98375.81;;;7.67;100.00
5872;BME280;2962;51.312;7.378;2023-04-19T01:44:42;98363.38;;;7.66;100.00
5872;BME280;2962;51.312;7.378;2023-04-19T01:47:07;98387.00;;;7.57;100.00
5872;BME280;2962;51.312;7.378;2023-04-19T01:49:32;98364.78;;;7.72;100.00
5872;BME280;2962;51.312;7.378;2023-04-19T01:51:58;98376.94;;;7.66;100.00
5872;BME280;2962;51.312;7.378;2023-04-19T01:54:23;98371.50;;;7.66;100.00
5872;BME280;2962;51.312;7.378;2023-04-19T01:56:48;98379.31;;;7.68;100.00
5872;BME280;2962;51.312;7.378;2023-04-19T01:59:14;98370.09;;;7.60;100.00
5872;BME280;2962;51.312;7.378;2023-04-19T02:01:39;98364.88;;;7.55;100.00
5872;BME280;2962;51.312;7.378;2023-04-19T02:04:05;98366.63;;;7.51;100.00
5872;BME280;2962;51.312;7.378;2023-04-19T02:06:31;98365.66;;;7.55;100.00
5872;BME280;2962;51.312;7.378;2023-04-19T02:08:57;98370.28;;;7.55;100.00
5872;BME280;2962;51.312;7.378;2023-04-19T02:11:22;98370.00;;;7.48;100.00
5872;BME280;2962;51.312;7.378;2023-04-19T02:13:47;98367.72;;;7.58;100.00
5872;BME280;2962;51.312;7.378;2023-04-19T02:16:13;98364.91;;;7.46;100.00
5872;BME280;2962;51.312;7.378;2023-04-19T02:18:38;98358.03;;;7.49;100.00
5872;BME280;2962;51.312;7.378;2023-04-19T02:21:05;98361.41;;;7.46;100.00
5872;BME280;2962;51.312;7.378;2023-04-19T02:23:31;98356.63;;;7.43;100.00
5872;BME280;2962;51.312;7.378;2023-04-19T02:25:56;98367.63;;;7.46;100.00
5872;BME280;2962;51.312;7.378;2023-04-19T02:28:22;98362.69;;;7.40;100.00
5872;BME280;2962;51.312;7.378;2023-04-19T02:30:47;98370.97;;;7.43;100.00
5872;BME280;2962;51.312;7.378;2023-04-19T02:33:13;98369.19;;;7.47;100.00
5872;BME280;2962;51.312;7.378;2023-04-19T02:35:39;98368.56;;;7.42;100.00
5872;BME280;2962;51.312;7.378;2023-04-19T02:38:04;98373.34;;;7.45;100.00
5872;BME280;2962;51.312;7.378;2023-04-19T02:40:29;98373.19;;;7.41;100.00
5872;BME280;2962;51.312;7.378;2023-04-19T02:42:55;98366.94;;;7.49;100.00
5872;BME280;2962;51.312;7.378;2023-04-19T02:45:20;98367.47;;;7.43;100.00
5872;BME280;2962;51.312;7.378;2023-04-19T02:47:45;98372.56;;;7.44;100.00
5872;BME280;2962;51.312;7.378;2023-04-19T02:50:12;98370.31;;;7.46;100.00
5872;BME280;2962;51.312;7.378;2023-04-19T02:52:37;98378.31;;;7.43;100.00
5872;BME280;2962;51.312;7.378;2023-04-19T02:55:04;98374.66;;;7.39;100.00
5872;BME280;2962;51.312;7.378;2023-04-19T02:57:29;98364.75;;;7.34;100.00
5872;BME280;2962;51.312;7.378;2023-04-19T02:59:55;98367.66;;;7.29;100.00
5872;BME280;2962;51.312;7.378;2023-04-19T03:02:20;98359.03;;;7.36;100.00
5872;BME280;2962;51.312;7.378;2023-04-19T03:04:45;98356.50;;;7.30;100.00
5872;BME280;2962;51.312;7.378;2023-04-19T03:07:11;98365.09;;;7.32;100.00
5872;BME280;2962;51.312;7.378;2023-04-19T03:09:37;98358.41;;;7.30;100.00
5872;BME280;2962;51.312;7.378;2023-04-19T03:12:03;98350.47;;;7.25;100.00
5872;BME280;2962;51.312;7.378;2023-04-19T03:14:28;98348.38;;;7.30;100.00
5872;BME280;2962;51.312;7.378;2023-04-19T03:16:53;98352.19;;;7.29;100.00
5872;BME280;2962;51.312;7.378;2023-04-19T03:19:19;98358.25;;;7.26;100.00
5872;BME280;2962;51.312;7.378;2023-04-19T03:21:44;98352.03;;;7.34;100.00
5872;BME280;2962;51.312;7.378;2023-04-19T03:24:09;98354.09;;;7.29;100.00
5872;BME280;2962;51.312;7.378;2023-04-19T03:26:35;98360.50;;;7.24;100.00
5872;BME280;2962;51.312;7.378;2023-04-19T03:29:00;98343.94;;;7.17;100.00
5872;BME280;2962;51.312;7.378;2023-04-19T03:31:26;98339.66;;;7.16;100.00
5872;BME280;2962;51.312;7.378;2023-04-19T03:33:51;98340.94;;;7.10;100.00
5872;BME280;2962;51.312;7.378;2023-04-19T03:36:16;98335.50;;;7.10;100.00
5872;BME280;2962;51.312;7.378;2023-04-19T03:38:41;98333.59;;;7.19;100.00
5872;BME280;2962;51.312;7.378;2023-04-19T03:41:25;98330.56;;;7.12;100.00
5872;BME280;2962;51.312;7.378;2023-04-19T03:43:50;98335.50;;;7.19;100.00
5872;BME280;2962;51.312;7.378;2023-04-19T03:46:16;98325.31;;;7.07;100.00
5872;BME280;2962;51.312;7.378;2023-04-19T03:48:41;98318.94;;;7.12;100.00
5872;BME280;2962;51.312;7.378;2023-04-19T03:51:06;98319.09;;;7.15;100.00
5872;BME280;2962;51.312;7.378;2023-04-19T03:53:32;98312.84;;;7.15;100.00
5872;BME280;2962;51.312;7.378;2023-04-19T03:55:57;98314.19;;;7.00;100.00
5872;BME280;2962;51.312;7.378;2023-04-19T03:58:22;98306.53;;;7.02;100.00
5872;BME280;2962;51.312;7.378;2023-04-19T04:00:48;98317.19;;;7.07;100.00
5872;BME280;2962;51.312;7.378;2023-04-19T04:03:13;98312.56;;;7.16;100.00
5872;BME280;2962;51.312;7.378;2023-04-19T04:05:38;98311.75;;;7.16;100.00
5872;BME280;2962;51.312;7.378;2023-04-19T04:08:04;98311.50;;;7.00;100.00
5872;BME280;2962;51.312;7.378;2023-04-19T04:10:29;98322.34;;;7.00;100.00
5872;BME280;2962;51.312;7.378;2023-04-19T04:12:55;98315.97;;;6.87;100.00
5872;BME280;2962;51.312;7.378;2023-04-19T04:15:20;98314.22;;;6.82;100.00
5872;BME280;2962;51.312;7.378;2023-04-19T04:17:45;98313.78;;;6.80;100.00
5872;BME280;2962;51.312;7.378;2023-04-19T04:20:11;98289.91;;;6.65;100.00
5872;BME280;2962;51.312;7.378;2023-04-19T04:22:44;98311.22;;;6.75;100.00
5872;BME280;2962;51.312;7.378;2023-04-19T04:25:13;98309.66;;;6.66;100.00
5872;BME280;2962;51.312;7.378;2023-04-19T04:27:40;98314.88;;;6.71;100.00
5872;BME280;2962;51.312;7.378;2023-04-19T04:30:07;98320.16;;;6.67;100.00
5872;BME280;2962;51.312;7.378;2023-04-19T04:32:33;98311.56;;;6.65;100.00
5872;BME280;2962;51.312;7.378;2023-04-19T04:35:05;98309.50;;;6.62;100.00
5872;BME280;2962;51.312;7.378;2023-04-19T04:37:31;98314.91;;;6.62;100.00
5872;BME280;2962;51.312;7.378;2023-04-19T04:40:00;98312.84;;;6.59;100.00
5872;BME280;2962;51.312;7.378;2023-04-19T04:42:26;98304.91;;;6.54;100.00
5872;BME280;2962;51.312;7.378;2023-04-19T04:44:52;98314.25;;;6.56;100.00
5872;BME280;2962;51.312;7.378;2023-04-19T04:47:17;98297.59;;;6.46;100.00
5872;BME280;2962;51.312;7.378;2023-04-19T04:49:42;98315.72;;;6.54;100.00
5872;BME280;2962;51.312;7.378;2023-04-19T04:52:08;98290.91;;;6.34;100.00
5872;BME280;2962;51.312;7.378;2023-04-19T04:54:33;98314.78;;;6.50;100.00
5872;BME280;2962;51.312;7.378;2023-04-19T04:56:59;98310.00;;;6.47;100.00
5872;BME280;2962;51.312;7.378;2023-04-19T04:59:25;98317.94;;;6.52;100.00
5872;BME280;2962;51.312;7.378;2023-04-19T05:01:50;98303.78;;;6.55;100.00
5872;BME280;2962;51.312;7.378;2023-04-19T05:04:16;98314.25;;;6.56;100.00
5872;BME280;2962;51.312;7.378;2023-04-19T05:06:41;98295.00;;;6.41;100.00
5872;BME280;2962;51.312;7.378;2023-04-19T05:09:08;98312.69;;;6.47;100.00
5872;BME280;2962;51.312;7.378;2023-04-19T05:11:33;98319.38;;;6.49;100.00
5872;BME280;2962;51.312;7.378;2023-04-19T05:13:59;98315.25;;;6.43;100.00
5872;BME280;2962;51.312;7.378;2023-04-19T05:16:25;98314.63;;;6.46;100.00
5872;BME280;2962;51.312;7.378;2023-04-19T05:18:51;98320.31;;;6.45;100.00
5872;BME280;2962;51.312;7.378;2023-04-19T05:21:16;98320.97;;;6.42;100.00
5872;BME280;2962;51.312;7.378;2023-04-19T05:23:41;98316.84;;;6.44;100.00
5872;BME280;2962;51.312;7.378;2023-04-19T05:26:07;98304.25;;;6.40;100.00
5872;BME280;2962;51.312;7.378;2023-04-19T05:28:36;98318.25;;;6.33;100.00
5872;BME280;2962;51.312;7.378;2023-04-19T05:31:01;98311.44;;;6.35;100.00
5872;BME280;2962;51.312;7.378;2023-04-19T05:33:27;98317.47;;;6.32;100.00
5872;BME280;2962;51.312;7.378;2023-04-19T05:35:52;98310.16;;;6.24;100.00
5872;BME280;2962;51.312;7.378;2023-04-19T05:38:17;98304.41;;;6.26;100.00
5872;BME280;2962;51.312;7.378;2023-04-19T05:40:42;98310.16;;;6.16;100.00
5872;BME280;2962;51.312;7.378;2023-04-19T05:43:08;98315.25;;;6.08;100.00
5872;BME280;2962;51.312;7.378;2023-04-19T05:45:33;98311.75;;;6.08;100.00
5872;BME280;2962;51.312;7.378;2023-04-19T05:47:58;98309.34;;;5.98;100.00
5872;BME280;2962;51.312;7.378;2023-04-19T05:50:24;98306.00;;;6.01;100.00
5872;BME280;2962;51.312;7.378;2023-04-19T05:52:49;98298.69;;;5.93;100.00
5872;BME280;2962;51.312;7.378;2023-04-19T05:55:14;98307.41;;;5.90;100.00
5872;BME280;2962;51.312;7.378;2023-04-19T05:57:39;98304.19;;;5.87;100.00
5872;BME280;2962;51.312;7.378;2023-04-19T06:00:05;98303.63;;;6.17;100.00
5872;BME280;2962;51.312;7.378;2023-04-19T06:02:33;98281.66;;;6.01;100.00
5872;BME280;2962;51.312;7.378;2023-04-19T06:04:58;98307.91;;;6.09;100.00
5872;BME280;2962;51.312;7.378;2023-04-19T06:07:24;98295.34;;;6.13;100.00
5872;BME280;2962;51.312;7.378;2023-04-19T06:09:49;98301.88;;;6.21;100.00
5872;BME280;2962;51.312;7.378;2023-04-19T06:12:14;98296.00;;;6.27;100.00
5872;BME280;2962;51.312;7.378;2023-04-19T06:14:40;98278.78;;;6.41;100.00
5872;BME280;2962;51.312;7.378;2023-04-19T06:17:05;98281.31;;;6.54;100.00
5872;BME280;2962;51.312;7.378;2023-04-19T06:19:30;98282.56;;;6.74;100.00
5872;BME280;2962;51.312;7.378;2023-04-19T06:21:58;98282.16;;;7.02;100.00
5872;BME280;2962;51.312;7.378;2023-04-19T06:24:23;98286.09;;;7.13;100.00
5872;BME280;2962;51.312;7.378;2023-04-19T06:26:49;98282.88;;;7.20;100.00
5872;BME280;2962;51.312;7.378;2023-04-19T06:29:14;98280.78;;;7.25;100.00
5872;BME280;2962;51.312;7.378;2023-04-19T06:31:39;98288.91;;;7.25;100.00
5872;BME280;2962;51.312;7.378;2023-04-19T06:34:05;98285.88;;;7.27;100.00
5872;BME280;2962;51.312;7.378;2023-04-19T06:36:31;98285.22;;;7.30;100.00
5872;BME280;2962;51.312;7.378;2023-04-19T06:38:56;98281.56;;;7.34;100.00
5872;BME280;2962;51.312;7.378;2023-04-19T06:41:21;98277.09;;;7.30;100.00
5872;BME280;2962;51.312;7.378;2023-04-19T06:43:47;98277.06;;;7.39;100.00
5872;BME280;2962;51.312;7.378;2023-04-19T06:46:12;98265.34;;;7.17;100.00
5872;BME280;2962;51.312;7.378;2023-04-19T06:48:40;98283.72;;;7.41;100.00
5872;BME280;2962;51.312;7.378;2023-04-19T06:51:06;98268.66;;;7.31;100.00
5872;BME280;2962;51.312;7.378;2023-04-19T06:53:31;98278.31;;;7.41;100.00
5872;BME280;2962;51.312;7.378;2023-04-19T06:55:58;98264.81;;;7.32;100.00
5872;BME280;2962;51.312;7.378;2023-04-19T06:58:25;98289.00;;;7.38;100.00
5872;BME280;2962;51.312;7.378;2023-04-19T07:00:51;98272.75;;;7.38;100.00
5872;BME280;2962;51.312;7.378;2023-04-19T07:03:16;98266.25;;;7.30;100.00
5872;BME280;2962;51.312;7.378;2023-04-19T07:05:41;98278.97;;;7.38;100.00
5872;BME280;2962;51.312;7.378;2023-04-19T07:08:06;98267.94;;;7.43;100.00
5872;BME280;2962;51.312;7.378;2023-04-19T07:10:32;98271.38;;;7.61;100.00
5872;BME280;2962;51.312;7.378;2023-04-19T07:12:57;98283.03;;;7.82;100.00
5872;BME280;2962;51.312;7.378;2023-04-19T07:15:22;98255.91;;;7.82;100.00
5872;BME280;2962;51.312;7.378;2023-04-19T07:17:47;98263.72;;;7.84;100.00
5872;BME280;2962;51.312;7.378;2023-04-19T07:20:13;98266.38;;;7.93;100.00
5872;BME280;2962;51.312;7.378;2023-04-19T07:22:38;98276.94;;;7.86;100.00
5872;BME280;2962;51.312;7.378;2023-04-19T07:25:03;98266.88;;;7.86;100.00
5872;BME280;2962;51.312;7.378;2023-04-19T07:27:29;98259.31;;;7.92;100.00
5872;BME280;2962;51.312;7.378;2023-04-19T07:29:54;98263.63;;;8.14;100.00
5872;BME280;2962;51.312;7.378;2023-04-19T07:32:19;98248.13;;;8.14;100.00
5872;BME280;2962;51.312;7.378;2023-04-19T07:34:45;98266.50;;;8.38;100.00
5872;BME280;2962;51.312;7.378;2023-04-19T07:37:10;98263.03;;;8.29;100.00
5872;BME280;2962;51.312;7.378;2023-04-19T07:39:36;98262.25;;;8.28;100.00
5872;BME280;2962;51.312;7.378;2023-04-19T07:42:02;98268.13;;;8.30;100.00
5872;BME280;2962;51.312;7.378;2023-04-19T07:44:27;98268.09;;;8.39;100.00
5872;BME280;2962;51.312;7.378;2023-04-19T07:46:52;98259.72;;;8.44;100.00
5872;BME280;2962;51.312;7.378;2023-04-19T07:49:18;98267.47;;;8.54;100.00
5872;BME280;2962;51.312;7.378;2023-04-19T07:51:43;98261.78;;;8.80;100.00
5872;BME280;2962;51.312;7.378;2023-04-19T07:54:08;98255.84;;;8.66;100.00
5872;BME280;2962;51.312;7.378;2023-04-19T07:56:34;98269.88;;;8.68;100.00
5872;BME280;2962;51.312;7.378;2023-04-19T07:58:59;98263.22;;;8.78;100.00
5872;BME280;2962;51.312;7.378;2023-04-19T08:01:25;98272.31;;;9.07;100.00
5872;BME280;2962;51.312;7.378;2023-04-19T08:03:50;98275.81;;;8.83;100.00
5872;BME280;2962;51.312;7.378;2023-04-19T08:06:15;98284.56;;;8.88;100.00
5872;BME280;2962;51.312;7.378;2023-04-19T08:08:42;98293.16;;;9.02;100.00
5872;BME280;2962;51.312;7.378;2023-04-19T08:11:07;98278.72;;;9.23;100.00
5872;BME280;2962;51.312;7.378;2023-04-19T08:13:32;98282.53;;;9.22;100.00
5872;BME280;2962;51.312;7.378;2023-04-19T08:15:58;98272.50;;;9.35;100.00
5872;BME280;2962;51.312;7.378;2023-04-19T08:18:23;98287.66;;;9.48;100.00
5872;BME280;2962;51.312;7.378;2023-04-19T08:20:49;98284.72;;;9.28;100.00
5872;BME280;2962;51.312;7.378;2023-04-19T08:23:14;98287.66;;;9.11;100.00
5872;BME280;2962;51.312;7.378;2023-04-19T08:25:40;98294.19;;;8.98;100.00
5872;BME280;2962;51.312;7.378;2023-04-19T08:28:05;98289.13;;;9.21;100.00
5872;BME280;2962;51.312;7.378;2023-04-19T08:30:31;98283.69;;;9.45;100.00
5872;BME280;2962;51.312;7.378;2023-04-19T08:32:56;98287.66;;;9.60;100.00
5872;BME280;2962;51.312;7.378;2023-04-19T08:35:21;98285.56;;;9.94;100.00
5872;BME280;2962;51.312;7.378;2023-04-19T08:37:47;98277.69;;;9.76;100.00
5872;BME280;2962;51.312;7.378;2023-04-19T08:40:13;98276.53;;;9.77;100.00
5872;BME280;2962;51.312;7.378;2023-04-19T08:42:40;98292.31;;;9.84;100.00
5872;BME280;2962;51.312;7.378;2023-04-19T08:45:06;98293.19;;;9.88;100.00
5872;BME280;2962;51.312;7.378;2023-04-19T08:47:33;98288.56;;;10.29;100.00
5872;BME280;2962;51.312;7.378;2023-04-19T08:50:08;98294.59;;;10.35;100.00
5872;BME280;2962;51.312;7.378;2023-04-19T08:52:36;98288.25;;;10.31;100.00
5872;BME280;2962;51.312;7.378;2023-04-19T08:55:05;98281.28;;;10.45;100.00
5872;BME280;2962;51.312;7.378;2023-04-19T08:57:31;98282.91;;;10.62;100.00
5872;BME280;2962;51.312;7.378;2023-04-19T08:59:58;98280.34;;;10.54;100.00
5872;BME280;2962;51.312;7.378;2023-04-19T09:02:23;98279.44;;;10.49;100.00
5872;BME280;2962;51.312;7.378;2023-04-19T09:04:48;98277.25;;;10.27;100.00
5872;BME280;2962;51.312;7.378;2023-04-19T09:07:27;98277.47;;;10.34;100.00
5872;BME280;2962;51.312;7.378;2023-04-19T09:10:06;98276.56;;;10.58;100.00
5872;BME280;2962;51.312;7.378;2023-04-19T09:12:33;98280.50;;;10.33;100.00
5872;BME280;2962;51.312;7.378;2023-04-19T09:14:59;98269.81;;;10.40;100.00
5872;BME280;2962;51.312;7.378;2023-04-19T09:17:25;98271.06;;;10.42;100.00
5872;BME280;2962;51.312;7.378;2023-04-19T09:19:51;98271.28;;;10.49;100.00
5872;BME280;2962;51.312;7.378;2023-04-19T09:22:16;98276.13;;;11.00;100.00
5872;BME280;2962;51.312;7.378;2023-04-19T09:24:42;98275.75;;;11.33;100.00
5872;BME280;2962;51.312;7.378;2023-04-19T09:27:07;98240.09;;;11.26;100.00
5872;BME280;2962;51.312;7.378;2023-04-19T09:29:35;98257.81;;;10.85;100.00
5872;BME280;2962;51.312;7.378;2023-04-19T09:32:01;98243.56;;;11.07;100.00
5872;BME280;2962;51.312;7.378;2023-04-19T09:34:26;98257.44;;;11.02;100.00
5872;BME280;2962;51.312;7.378;2023-04-19T09:36:54;98254.72;;;11.02;100.00
5872;BME280;2962;51.312;7.378;2023-04-19T09:39:32;98256.31;;;11.35;100.00
5872;BME280;2962;51.312;7.378;2023-04-19T09:41:57;98252.31;;;11.64;100.00
5872;BME280;2962;51.312;7.378;2023-04-19T09:44:23;98246.84;;;11.64;100.00
5872;BME280;2962;51.312;7.378;2023-04-19T09:46:49;98235.63;;;11.49;100.00
5872;BME280;2962;51.312;7.378;2023-04-19T09:49:23;98236.69;;;11.80;100.00
5872;BME280;2962;51.312;7.378;2023-04-19T09:51:50;98231.63;;;12.17;100.00
5872;BME280;2962;51.312;7.378;2023-04-19T09:54:18;98239.97;;;12.25;100.00
5872;BME280;2962;51.312;7.378;2023-04-19T09:56:44;98225.75;;;12.15;100.00
5872;BME280;2962;51.312;7.378;2023-04-19T09:59:10;98229.75;;;12.41;94.13
5872;BME280;2962;51.312;7.378;2023-04-19T10:01:43;98226.03;;;12.30;90.96
5872;BME280;2962;51.312;7.378;2023-04-19T10:04:15;98228.81;;;12.33;89.93
5872;BME280;2962;51.312;7.378;2023-04-19T10:06:51;98230.50;;;12.18;81.35
5872;BME280;2962;51.312;7.378;2023-04-19T10:09:17;98222.56;;;12.33;78.42
5872;BME280;2962;51.312;7.378;2023-04-19T10:11:52;98222.56;;;12.33;80.79
5872;BME280;2962;51.312;7.378;2023-04-19T10:14:22;98207.66;;;12.27;77.81
5872;BME280;2962;51.312;7.378;2023-04-19T10:16:49;98221.19;;;12.62;75.03
5872;BME280;2962;51.312;7.378;2023-04-19T10:19:17;98224.84;;;12.92;69.37
5872;BME280;2962;51.312;7.378;2023-04-19T10:21:43;98225.44;;;12.82;68.16
5872;BME280;2962;51.312;7.378;2023-04-19T10:24:12;98224.34;;;12.64;70.70
5872;BME280;2962;51.312;7.378;2023-04-19T10:27:09;98232.16;;;12.23;62.34
5872;BME280;2962;51.312;7.378;2023-04-19T10:29:58;98228.75;;;12.10;62.22
5872;BME280;2962;51.312;7.378;2023-04-19T10:32:41;98227.19;;;12.29;69.85
5872;BME280;2962;51.312;7.378;2023-04-19T10:35:16;98232.75;;;12.75;71.21
5872;BME280;2962;51.312;7.378;2023-04-19T10:38:01;98235.56;;;13.01;68.85
5872;BME280;2962;51.312;7.378;2023-04-19T10:43:34;98215.44;;;12.90;63.20
5872;BME280;2962;51.312;7.378;2023-04-19T10:46:08;98232.22;;;13.11;58.62
5872;BME280;2962;51.312;7.378;2023-04-19T10:48:39;98225.03;;;13.03;63.47
5872;BME280;2962;51.312;7.378;2023-04-19T10:51:18;98226.75;;;12.88;57.54
5872;BME280;2962;51.312;7.378;2023-04-19T10:56:11;98207.66;;;12.69;63.38
5872;BME280;2962;51.312;7.378;2023-04-19T11:01:34;98212.31;;;13.37;61.45
5872;BME280;2962;51.312;7.378;2023-04-19T11:04:04;98196.09;;;13.52;56.39
5872;BME280;2962;51.312;7.378;2023-04-19T11:06:30;98206.22;;;14.04;58.22
5872;BME280;2962;51.312;7.378;2023-04-19T11:08:56;98205.47;;;13.77;53.23
5872;BME280;2962;51.312;7.378;2023-04-19T11:11:22;98197.91;;;13.97;57.00
5872;BME280;2962;51.312;7.378;2023-04-19T11:13:49;98195.59;;;14.03;56.74
5872;BME280;2962;51.312;7.378;2023-04-19T11:16:14;98182.81;;;14.48;57.49
5872;BME280;2962;51.312;7.378;2023-04-19T11:18:40;98193.03;;;14.17;55.64
5872;BME280;2962;51.312;7.378;2023-04-19T11:21:06;98190.00;;;14.59;56.78
5872;BME280;2962;51.312;7.378;2023-04-19T11:23:31;98192.44;;;14.31;60.62
5872;BME280;2962;51.312;7.378;2023-04-19T11:25:57;98176.69;;;15.02;54.93
5872;BME280;2962;51.312;7.378;2023-04-19T11:28:23;98178.66;;;15.05;47.89
5872;BME280;2962;51.312;7.378;2023-04-19T11:30:48;98167.94;;;14.86;51.41
5872;BME280;2962;51.312;7.378;2023-04-19T11:33:14;98167.63;;;15.50;50.48
5872;BME280;2962;51.312;7.378;2023-04-19T11:35:39;98162.44;;;15.41;48.50
5872;BME280;2962;51.312;7.378;2023-04-19T11:38:05;98151.13;;;15.46;47.43
5872;BME280;2962;51.312;7.378;2023-04-19T11:40:31;98160.88;;;16.13;46.84
5872;BME280;2962;51.312;7.378;2023-04-19T11:42:59;98162.38;;;15.27;41.83
5872;BME280;2962;51.312;7.378;2023-04-19T11:45:26;98145.50;;;15.98;44.51
5872;BME280;2962;51.312;7.378;2023-04-19T11:47:54;98147.19;;;16.31;44.73
5872;BME280;2962;51.312;7.378;2023-04-19T11:50:35;98151.16;;;16.44;45.34
5872;BME280;2962;51.312;7.378;2023-04-19T11:53:17;98137.38;;;16.37;44.21
5872;BME280;2962;51.312;7.378;2023-04-19T11:56:02;98142.72;;;15.91;46.75
5872;BME280;2962;51.312;7.378;2023-04-19T12:00:56;98141.41;;;17.15;43.36
5872;BME280;2962;51.312;7.378;2023-04-19T12:03:24;98115.78;;;17.43;45.12
5872;BME280;2962;51.312;7.378;2023-04-19T12:05:55;98125.66;;;17.26;40.38
5872;BME280;2962;51.312;7.378;2023-04-19T12:08:31;98127.22;;;17.13;41.35
5872;BME280;2962;51.312;7.378;2023-04-19T12:10:58;98120.94;;;17.12;40.92
5872;BME280;2962;51.312;7.378;2023-04-19T12:13:26;98115.78;;;17.43;40.81
5872;BME280;2962;51.312;7.378;2023-04-19T12:15:52;98120.00;;;17.79;42.43
5872;BME280;2962;51.312;7.378;2023-04-19T12:18:17;98119.59;;;17.88;43.97
5872;BME280;2962;51.312;7.378;2023-04-19T12:20:47;98102.28;;;17.88;41.04
5872;BME280;2962;51.312;7.378;2023-04-19T12:23:13;98102.72;;;19.01;41.84
5872;BME280;2962;51.312;7.378;2023-04-19T12:25:40;98103.25;;;18.85;39.58
5872;BME280;2962;51.312;7.378;2023-04-19T12:28:06;98111.63;;;18.67;36.44
5872;BME280;2962;51.312;7.378;2023-04-19T12:30:31;98103.56;;;18.94;35.93
5872;BME280;2962;51.312;7.378;2023-04-19T12:32:58;98109.22;;;18.80;37.28
5872;BME280;2962;51.312;7.378;2023-04-19T12:35:24;98108.03;;;18.81;39.05
5872;BME280;2962;51.312;7.378;2023-04-19T12:37:52;98110.03;;;18.70;38.89
5872;BME280;2962;51.312;7.378;2023-04-19T12:40:18;98105.31;;;18.74;36.43
5872;BME280;2962;51.312;7.378;2023-04-19T12:42:43;98108.75;;;19.30;39.24
5872;BME280;2962;51.312;7.378;2023-04-19T12:45:09;98095.94;;;19.47;40.51
5872;BME280;2962;51.312;7.378;2023-04-19T12:47:35;98086.00;;;19.53;38.71
5872;BME280;2962;51.312;7.378;2023-04-19T12:50:00;98097.00;;;19.60;39.56
5872;BME280;2962;51.312;7.378;2023-04-19T12:52:26;98091.69;;;20.07;39.25
5872;BME280;2962;51.312;7.378;2023-04-19T12:54:51;98091.66;;;20.65;37.46
5872;BME280;2962;51.312;7.378;2023-04-19T12:57:16;98094.78;;;20.13;37.68
5872;BME280;2962;51.312;7.378;2023-04-19T12:59:42;98085.56;;;19.92;37.45
5872;BME280;2962;51.312;7.378;2023-04-19T13:02:07;98098.41;;;19.38;37.22
5872;BME280;2962;51.312;7.378;2023-04-19T13:04:32;98100.09;;;19.28;37.58
5872;BME280;2962;51.312;7.378;2023-04-19T13:06:57;98082.94;;;19.82;37.40
5872;BME280;2962;51.312;7.378;2023-04-19T13:09:23;98080.72;;;19.69;35.27
5872;BME280;2962;51.312;7.378;2023-04-19T13:11:48;98080.22;;;19.78;37.00
5872;BME280;2962;51.312;7.378;2023-04-19T13:14:14;98058.59;;;20.27;37.48
5872;BME280;2962;51.312;7.378;2023-04-19T13:16:39;98068.66;;;20.14;36.38
5872;BME280;2962;51.312;7.378;2023-04-19T13:19:05;98065.38;;;19.61;35.70
5872;BME280;2962;51.312;7.378;2023-04-19T13:21:30;98062.38;;;19.83;36.48
5872;BME280;2962;51.312;7.378;2023-04-19T13:23:58;98051.06;;;20.00;34.41
5872;BME280;2962;51.312;7.378;2023-04-19T13:26:24;98063.72;;;19.33;34.39